createdAt,value
2019-06-15T00:00:16.165Z,1002.9
2019-06-15T00:01:17.539Z,1002.7
2019-06-15T00:02:18.914Z,1002.6
2019-06-15T00:03:20.313Z,1002.5
2019-06-15T00:04:21.680Z,1002.4
2019-06-15T00:05:23.055Z,1002.3
2019-06-15T00:06:24.429Z,1002.3
2019-06-15T00:07:25.793Z,1002.3
2019-06-15T00:08:27.172Z,1002.4
2019-06-15T00:09:28.547Z,1002.4
2019-06-15T00:10:29.927Z,1002.4
2019-06-15T00:11:31.297Z,1002.3
2019-06-15T00:12:32.673Z,1002.2
2019-06-15T00:13:34.039Z,1002.2
2019-06-15T00:14:35.416Z,1002.2
2019-06-15T00:15:36.785Z,1002.2
2019-06-15T00:16:38.206Z,1002.2
2019-06-15T00:17:39.529Z,1002.2
2019-06-15T00:18:40.918Z,1002.3
2019-06-15T00:19:42.279Z,1002.3
2019-06-15T00:20:43.658Z,1002.3
2019-06-15T00:21:45.044Z,1002.2
2019-06-15T00:22:46.425Z,1002.3
2019-06-15T00:23:47.791Z,1002.3
2019-06-15T00:24:49.155Z,1002.3
2019-06-15T00:25:50.533Z,1002.3
2019-06-15T00:26:51.908Z,1002.2
2019-06-15T00:27:53.336Z,1002.3
2019-06-15T00:28:54.622Z,1002.3
2019-06-15T00:29:56.002Z,1002.3
2019-06-15T00:30:57.372Z,1002.3
2019-06-15T00:31:58.755Z,1002.2
2019-06-15T00:33:00.123Z,1002.2
2019-06-15T00:34:01.498Z,1002.1
2019-06-15T00:35:02.870Z,1002.1
2019-06-15T00:36:04.254Z,1001.9
2019-06-15T00:37:05.623Z,1001.8
2019-06-15T00:38:06.996Z,1001.8
2019-06-15T00:39:08.365Z,1001.9
2019-06-15T00:40:09.745Z,1002.0
2019-06-15T00:41:11.122Z,1002.1
2019-06-15T00:42:12.487Z,1002.1
2019-06-15T00:43:13.855Z,1002.1
2019-06-15T00:44:15.225Z,1002.0
2019-06-15T00:45:16.606Z,1002.0
2019-06-15T00:46:17.976Z,1002.0
2019-06-15T00:47:19.346Z,1001.9
2019-06-15T00:48:20.724Z,1001.9
2019-06-15T00:49:22.087Z,1001.8
2019-06-15T00:50:23.460Z,1001.7
2019-06-15T00:51:24.831Z,1001.6
2019-06-15T00:52:26.205Z,1001.4
2019-06-15T00:53:27.584Z,1001.3
2019-06-15T00:54:28.957Z,1001.2
2019-06-15T00:55:30.329Z,1001.3
2019-06-15T00:56:31.707Z,1001.4
2019-06-15T00:57:33.079Z,1001.4
2019-06-15T00:58:34.449Z,1001.6
2019-06-15T00:59:35.823Z,1001.6
2019-06-15T01:00:37.195Z,1001.7
2019-06-15T01:01:38.571Z,1001.7
2019-06-15T01:02:39.945Z,1001.7
2019-06-15T01:03:41.316Z,1001.8
2019-06-15T01:04:42.684Z,1001.8
2019-06-15T01:05:44.063Z,1001.8
2019-06-15T01:06:45.429Z,1001.8
2019-06-15T01:07:46.800Z,1001.7
2019-06-15T01:08:48.173Z,1001.7
2019-06-15T01:09:49.572Z,1001.7
2019-06-15T01:10:50.933Z,1001.7
2019-06-15T01:11:52.305Z,1001.7
2019-06-15T01:12:53.675Z,1001.7
2019-06-15T01:13:55.041Z,1001.6
2019-06-15T01:14:56.420Z,1001.6
2019-06-15T01:15:57.795Z,1001.7
2019-06-15T01:16:59.172Z,1001.7
2019-06-15T01:18:00.543Z,1001.7
2019-06-15T01:19:01.914Z,1001.7
2019-06-15T01:20:03.325Z,1001.6
2019-06-15T01:21:04.654Z,1001.6
2019-06-15T01:22:06.026Z,1001.5
2019-06-15T01:23:07.400Z,1001.5
2019-06-15T01:24:08.781Z,1001.4
2019-06-15T01:25:10.146Z,1001.4
2019-06-15T01:26:11.516Z,1001.3
2019-06-15T01:27:12.896Z,1001.3
2019-06-15T01:28:14.270Z,1001.2
2019-06-15T01:29:15.642Z,1001.2
2019-06-15T01:30:17.016Z,1001.2
2019-06-15T01:31:18.393Z,1001.1
2019-06-15T01:32:19.773Z,1001.1
2019-06-15T01:33:21.135Z,1001.0
2019-06-15T01:34:22.506Z,1001.0
2019-06-15T01:35:23.877Z,1001.0
2019-06-15T01:36:25.247Z,1000.9
2019-06-15T01:37:26.620Z,1000.9
2019-06-15T01:38:27.993Z,1000.9
2019-06-15T01:39:29.369Z,1000.9
2019-06-15T01:40:30.728Z,1000.9
2019-06-15T01:41:32.097Z,1000.9
2019-06-15T01:42:33.470Z,1000.8
2019-06-15T01:43:34.850Z,1000.8
2019-06-15T01:44:36.226Z,1000.8
2019-06-15T01:45:37.596Z,1000.8
2019-06-15T01:46:38.972Z,1000.8
2019-06-15T01:47:40.342Z,1000.8
2019-06-15T01:48:41.712Z,1000.8
2019-06-15T01:49:43.084Z,1000.7
2019-06-15T01:50:44.464Z,1000.7
2019-06-15T01:51:45.830Z,1000.7
2019-06-15T01:52:47.208Z,1000.6
2019-06-15T01:53:48.589Z,1000.6
2019-06-15T01:54:49.953Z,1000.6
2019-06-15T01:55:51.337Z,1000.6
2019-06-15T01:56:52.700Z,1000.6
2019-06-15T01:57:54.070Z,1000.6
2019-06-15T01:58:55.443Z,1000.5
2019-06-15T01:59:56.817Z,1000.5
2019-06-15T02:00:58.183Z,1000.5
2019-06-15T02:01:59.556Z,1000.5
2019-06-15T02:03:00.928Z,1000.5
2019-06-15T02:04:02.304Z,1000.5
2019-06-15T02:05:03.672Z,1000.4
2019-06-15T02:06:05.045Z,1000.4
2019-06-15T02:07:06.417Z,1000.4
2019-06-15T02:08:07.787Z,1000.4
2019-06-15T02:09:09.156Z,1000.4
2019-06-15T02:10:10.530Z,1000.4
2019-06-15T02:11:11.913Z,1000.4
2019-06-15T02:12:13.277Z,1000.3
2019-06-15T02:13:14.667Z,1000.3
2019-06-15T02:14:16.027Z,1000.3
2019-06-15T02:15:17.398Z,1000.3
2019-06-15T02:16:18.776Z,1000.3
2019-06-15T02:17:20.147Z,1000.2
2019-06-15T02:18:21.524Z,1000.2
2019-06-15T02:19:22.928Z,1000.2
2019-06-15T02:20:24.267Z,1000.2
2019-06-15T02:21:25.641Z,1000.2
2019-06-15T02:22:27.034Z,1000.1
2019-06-15T02:23:28.397Z,1000.1
2019-06-15T02:24:29.752Z,1000.1
2019-06-15T02:25:36.021Z,1000.1
2019-06-15T02:26:32.461Z,1000.1
2019-06-15T02:27:33.850Z,1000.1
2019-06-15T02:28:35.213Z,1000.1
2019-06-15T02:29:36.580Z,1000.1
2019-06-15T02:30:37.972Z,1000.1
2019-06-15T02:31:39.327Z,1000.1
2019-06-15T02:32:40.700Z,1000.1
2019-06-15T02:33:42.074Z,1000.0
2019-06-15T02:34:43.446Z,1000.0
2019-06-15T02:35:44.820Z,1000.1
2019-06-15T02:36:46.193Z,1000.0
2019-06-15T02:37:47.565Z,1000.0
2019-06-15T02:38:49.081Z,1000.0
2019-06-15T02:39:50.466Z,1000.0
2019-06-15T02:40:51.854Z,1000.0
2019-06-15T02:41:53.234Z,1000.0
2019-06-15T02:42:54.627Z,1000.0
2019-06-15T02:43:56.024Z,1000.0
2019-06-15T02:44:57.395Z,1000.0
2019-06-15T02:45:58.767Z,1000.0
2019-06-15T02:47:00.139Z,1000.0
2019-06-15T02:48:01.526Z,1000.0
2019-06-15T02:49:02.897Z,1000.0
2019-06-15T02:50:04.262Z,1000.0
2019-06-15T02:51:05.636Z,1000.0
2019-06-15T02:52:07.012Z,1000.0
2019-06-15T02:53:08.378Z,1000.0
2019-06-15T02:54:09.759Z,1000.1
2019-06-15T02:55:11.125Z,1000.1
2019-06-15T02:56:12.506Z,1000.2
2019-06-15T02:57:13.876Z,1000.2
2019-06-15T02:58:15.249Z,1000.2
2019-06-15T02:59:16.620Z,1000.1
2019-06-15T03:00:18.011Z,1000.1
2019-06-15T03:01:19.369Z,1000.0
2019-06-15T03:02:20.734Z,999.9
2019-06-15T03:03:22.107Z,999.9
2019-06-15T03:04:23.486Z,999.9
2019-06-15T03:05:24.853Z,999.9
2019-06-15T03:06:26.227Z,999.9
2019-06-15T03:07:27.592Z,999.8
2019-06-15T03:08:29.982Z,999.8
2019-06-15T03:09:31.354Z,999.9
2019-06-15T03:10:32.734Z,1000.0
2019-06-15T03:11:34.112Z,1000.0
2019-06-15T03:12:35.480Z,1000.1
2019-06-15T03:13:36.870Z,1000.1
2019-06-15T03:14:38.225Z,1000.1
2019-06-15T03:15:39.597Z,1000.2
2019-06-15T03:16:40.975Z,1000.2
2019-06-15T03:17:42.350Z,1000.2
2019-06-15T03:18:43.724Z,1000.2
2019-06-15T03:19:45.151Z,1000.2
2019-06-15T03:20:46.527Z,1000.2
2019-06-15T03:21:47.913Z,1000.2
2019-06-15T03:22:49.290Z,1000.2
2019-06-15T03:23:50.674Z,1000.2
2019-06-15T03:24:52.038Z,1000.2
2019-06-15T03:26:04.587Z,1000.2
2019-06-15T03:26:54.751Z,1000.3
2019-06-15T03:27:56.121Z,1000.3
2019-06-15T03:28:57.504Z,1000.2
2019-06-15T03:29:58.877Z,1000.2
2019-06-15T03:31:00.254Z,1000.3
2019-06-15T03:32:01.629Z,1000.2
2019-06-15T03:33:03.005Z,1000.2
2019-06-15T03:34:04.373Z,1000.2
2019-06-15T03:35:05.747Z,1000.2
2019-06-15T03:36:07.129Z,1000.2
2019-06-15T03:37:08.505Z,1000.1
2019-06-15T03:38:09.890Z,1000.2
2019-06-15T03:39:11.254Z,1000.2
2019-06-15T03:40:12.627Z,1000.2
2019-06-15T03:41:14.005Z,1000.2
2019-06-15T03:42:15.373Z,1000.2
2019-06-15T03:43:16.746Z,1000.2
2019-06-15T03:44:18.123Z,1000.2
2019-06-15T03:45:19.500Z,1000.2
2019-06-15T03:46:20.877Z,1000.2
2019-06-15T03:47:22.254Z,1000.2
2019-06-15T03:48:23.629Z,1000.3
2019-06-15T03:49:25.017Z,1000.3
2019-06-15T03:50:26.377Z,1000.3
2019-06-15T03:51:27.752Z,1000.3
2019-06-15T03:52:29.126Z,1000.3
2019-06-15T03:53:30.505Z,1000.4
2019-06-15T03:54:31.881Z,1000.3
2019-06-15T03:55:33.257Z,1000.4
2019-06-15T03:56:34.629Z,1000.3
2019-06-15T03:57:36.006Z,1000.4
2019-06-15T03:58:37.386Z,1000.3
2019-06-15T03:59:38.758Z,1000.3
2019-06-15T04:00:40.133Z,1000.4
2019-06-15T04:01:41.511Z,1000.2
2019-06-15T04:02:42.889Z,1000.3
2019-06-15T04:03:44.261Z,1000.2
2019-06-15T04:04:45.651Z,1000.2
2019-06-15T04:05:47.025Z,1000.2
2019-06-15T04:06:48.409Z,1000.2
2019-06-15T04:07:49.782Z,1000.2
2019-06-15T04:08:51.156Z,1000.1
2019-06-15T04:09:52.532Z,1000.2
2019-06-15T04:10:53.909Z,1000.2
2019-06-15T04:11:55.289Z,1000.2
2019-06-15T04:12:56.668Z,1000.2
2019-06-15T04:13:58.047Z,1000.1
2019-06-15T04:14:59.413Z,1000.1
2019-06-15T04:16:00.796Z,1000.1
2019-06-15T04:17:02.172Z,1000.1
2019-06-15T04:18:03.545Z,1000.1
2019-06-15T04:19:04.922Z,1000.1
2019-06-15T04:20:06.300Z,1000.1
2019-06-15T04:21:07.678Z,1000.1
2019-06-15T04:22:09.058Z,1000.1
2019-06-15T04:23:10.436Z,1000.0
2019-06-15T04:24:11.812Z,1000.0
2019-06-15T04:25:13.192Z,1000.0
2019-06-15T04:26:14.564Z,1000.0
2019-06-15T04:27:15.941Z,1000.0
2019-06-15T04:28:17.319Z,999.9
2019-06-15T04:29:18.699Z,1000.0
2019-06-15T04:30:20.073Z,999.9
2019-06-15T04:31:21.450Z,1000.0
2019-06-15T04:32:22.825Z,999.9
2019-06-15T04:33:24.204Z,1000.0
2019-06-15T04:34:25.581Z,999.9
2019-06-15T04:35:26.961Z,999.9
2019-06-15T04:36:28.337Z,999.9
2019-06-15T04:37:29.717Z,1000.0
2019-06-15T04:38:31.093Z,1000.0
2019-06-15T04:39:32.470Z,1000.1
2019-06-15T04:40:33.848Z,1000.1
2019-06-15T04:41:35.226Z,1000.1
2019-06-15T04:42:36.600Z,1000.1
2019-06-15T04:43:37.985Z,1000.1
2019-06-15T04:44:39.358Z,1000.1
2019-06-15T04:45:40.733Z,1000.1
2019-06-15T04:46:42.108Z,1000.1
2019-06-15T04:47:43.502Z,1000.1
2019-06-15T04:48:44.863Z,1000.1
2019-06-15T04:49:46.245Z,1000.1
2019-06-15T04:50:47.619Z,1000.1
2019-06-15T04:51:48.996Z,1000.2
2019-06-15T04:52:50.370Z,1000.2
2019-06-15T04:53:51.749Z,1000.2
2019-06-15T04:54:53.121Z,1000.1
2019-06-15T04:55:54.501Z,1000.1
2019-06-15T04:56:55.881Z,1000.1
2019-06-15T04:57:57.251Z,1000.2
2019-06-15T04:58:58.638Z,1000.2
2019-06-15T05:00:00.015Z,1000.2
2019-06-15T05:01:01.392Z,1000.3
2019-06-15T05:02:02.772Z,1000.3
2019-06-15T05:03:04.149Z,1000.4
2019-06-15T05:04:05.525Z,1000.4
2019-06-15T05:05:06.902Z,1000.5
2019-06-15T05:06:08.295Z,1000.6
2019-06-15T05:07:09.674Z,1000.6
2019-06-15T05:08:11.053Z,1000.7
2019-06-15T05:09:12.439Z,1000.7
2019-06-15T05:10:13.804Z,1000.7
2019-06-15T05:11:15.185Z,1000.7
2019-06-15T05:12:16.571Z,1000.6
2019-06-15T05:13:17.942Z,1000.6
2019-06-15T05:14:19.321Z,1000.6
2019-06-15T05:15:20.696Z,1000.6
2019-06-15T05:16:22.074Z,1000.7
2019-06-15T05:17:23.454Z,1000.7
2019-06-15T05:18:24.836Z,1000.6
2019-06-15T05:19:26.217Z,1000.7
2019-06-15T05:20:27.594Z,1000.7
2019-06-15T05:21:28.989Z,1000.7
2019-06-15T05:22:30.349Z,1000.6
2019-06-15T05:23:31.727Z,1000.7
2019-06-15T05:24:33.108Z,1000.7
2019-06-15T05:25:34.489Z,1000.7
2019-06-15T05:26:35.865Z,1000.7
2019-06-15T05:27:37.247Z,1000.6
2019-06-15T05:28:38.619Z,1000.6
2019-06-15T05:29:40.002Z,1000.6
2019-06-15T05:30:41.378Z,1000.6
2019-06-15T05:31:42.760Z,1000.6
2019-06-15T05:32:44.140Z,1000.6
2019-06-15T05:33:45.620Z,1000.5
2019-06-15T05:34:46.999Z,1000.6
2019-06-15T05:35:48.377Z,1000.6
2019-06-15T05:36:49.755Z,1000.7
2019-06-15T05:37:51.139Z,1000.8
2019-06-15T05:38:52.512Z,1000.7
2019-06-15T05:39:53.892Z,1000.6
2019-06-15T05:40:55.287Z,1000.6
2019-06-15T05:41:56.706Z,1000.6
2019-06-15T05:42:58.042Z,1000.6
2019-06-15T05:43:59.421Z,1000.7
2019-06-15T05:45:00.800Z,1000.8
2019-06-15T05:46:02.178Z,1000.8
2019-06-15T05:47:03.563Z,1000.9
2019-06-15T05:48:04.942Z,1000.8
2019-06-15T05:49:06.326Z,1000.8
2019-06-15T05:50:07.699Z,1001.0
2019-06-15T05:51:09.080Z,1000.9
2019-06-15T05:52:10.487Z,1001.0
2019-06-15T05:53:11.861Z,1001.0
2019-06-15T05:54:13.244Z,1001.1
2019-06-15T05:55:14.632Z,1001.2
2019-06-15T05:56:16.013Z,1001.1
2019-06-15T05:57:21.716Z,1001.1
2019-06-15T05:58:18.743Z,1001.1
2019-06-15T05:59:20.118Z,1001.1
2019-06-15T06:00:21.500Z,1001.2
2019-06-15T06:01:22.880Z,1001.2
2019-06-15T06:02:24.835Z,1001.2
2019-06-15T06:03:25.623Z,1001.2
2019-06-15T06:04:26.998Z,1001.2
2019-06-15T06:05:28.379Z,1001.2
2019-06-15T06:06:29.753Z,1001.1
2019-06-15T06:07:31.131Z,1001.1
2019-06-15T06:08:32.540Z,1001.1
2019-06-15T06:09:33.920Z,1001.1
2019-06-15T06:10:35.275Z,1001.2
2019-06-15T06:11:36.656Z,1001.3
2019-06-15T06:12:38.040Z,1001.3
2019-06-15T06:13:39.418Z,1001.4
2019-06-15T06:14:40.802Z,1001.3
2019-06-15T06:15:42.183Z,1001.2
2019-06-15T06:16:43.567Z,1001.2
2019-06-15T06:17:44.945Z,1001.3
2019-06-15T06:18:46.323Z,1001.3
2019-06-15T06:19:47.705Z,1001.3
2019-06-15T06:20:49.086Z,1001.2
2019-06-15T06:21:50.469Z,1001.2
2019-06-15T06:22:51.854Z,1001.3
2019-06-15T06:23:53.235Z,1001.4
2019-06-15T06:24:54.617Z,1001.5
2019-06-15T06:25:55.997Z,1001.6
2019-06-15T06:26:57.376Z,1001.5
2019-06-15T06:27:58.778Z,1001.5
2019-06-15T06:29:00.149Z,1001.5
2019-06-15T06:30:01.551Z,1001.6
2019-06-15T06:31:02.914Z,1001.6
2019-06-15T06:32:04.293Z,1001.6
2019-06-15T06:33:05.675Z,1001.7
2019-06-15T06:34:07.054Z,1001.6
2019-06-15T06:35:08.433Z,1001.6
2019-06-15T06:36:09.819Z,1001.6
2019-06-15T06:37:11.204Z,1001.7
2019-06-15T06:38:12.589Z,1001.4
2019-06-15T06:39:13.968Z,1001.4
2019-06-15T06:40:15.348Z,1001.6
2019-06-15T06:41:16.730Z,1001.6
2019-06-15T06:42:18.112Z,1001.6
2019-06-15T06:43:19.499Z,1001.7
2019-06-15T06:44:20.877Z,1002.0
2019-06-15T06:45:22.297Z,1002.0
2019-06-15T06:46:23.642Z,1001.8
2019-06-15T06:47:25.023Z,1001.7
2019-06-15T06:48:26.405Z,1001.7
2019-06-15T06:49:27.784Z,1001.6
2019-06-15T06:50:29.166Z,1001.6
2019-06-15T06:51:30.554Z,1001.8
2019-06-15T06:52:31.931Z,1001.9
2019-06-15T06:53:33.419Z,1002.0
2019-06-15T06:54:34.667Z,1002.0
2019-06-15T06:55:36.038Z,1002.0
2019-06-15T06:56:37.414Z,1001.8
2019-06-15T06:57:51.134Z,1002.2
2019-06-15T06:58:40.172Z,1002.2
2019-06-15T06:59:41.553Z,1001.8
2019-06-15T07:00:42.941Z,1001.7
2019-06-15T07:01:44.321Z,1001.6
2019-06-15T07:02:45.704Z,1001.6
2019-06-15T07:03:47.087Z,1001.7
2019-06-15T07:04:48.471Z,1001.7
2019-06-15T07:05:49.853Z,1001.6
2019-06-15T07:06:51.240Z,1001.7
2019-06-15T07:07:52.620Z,1001.7
2019-06-15T07:08:54.001Z,1001.7
2019-06-15T07:09:55.408Z,1001.7
2019-06-15T07:10:56.794Z,1001.7
2019-06-15T07:11:58.195Z,1001.6
2019-06-15T07:12:59.576Z,1001.6
2019-06-15T07:14:00.960Z,1001.7
2019-06-15T07:15:04.713Z,1001.8
2019-06-15T07:16:03.690Z,1001.8
2019-06-15T07:17:05.077Z,1001.8
2019-06-15T07:18:06.460Z,1001.8
2019-06-15T07:19:07.838Z,1001.8
2019-06-15T07:20:09.220Z,1002.0
2019-06-15T07:21:10.600Z,1002.0
2019-06-15T07:22:11.985Z,1002.0
2019-06-15T07:23:13.363Z,1002.3
2019-06-15T07:24:14.741Z,1002.3
2019-06-15T07:25:16.123Z,1002.3
2019-06-15T07:26:17.500Z,1002.7
2019-06-15T07:27:19.018Z,1002.9
2019-06-15T07:28:20.408Z,1003.2
2019-06-15T07:29:21.798Z,1003.5
2019-06-15T07:30:23.173Z,1003.2
2019-06-15T07:31:24.555Z,1002.5
2019-06-15T07:32:25.936Z,1002.1
2019-06-15T07:33:27.318Z,1002.0
2019-06-15T07:34:28.704Z,1002.0
2019-06-15T07:35:30.415Z,1002.0
2019-06-15T07:36:31.797Z,1001.9
2019-06-15T07:37:33.177Z,1001.9
2019-06-15T07:38:34.562Z,1002.0
2019-06-15T07:39:35.944Z,1002.1
2019-06-15T07:40:37.332Z,1002.0
2019-06-15T07:41:39.130Z,1002.1
2019-06-15T07:42:40.059Z,1002.0
2019-06-15T07:43:41.474Z,1002.0
2019-06-15T07:44:42.838Z,1002.0
2019-06-15T07:45:44.226Z,1002.0
2019-06-15T07:46:45.635Z,1002.0
2019-06-15T07:47:47.000Z,1002.0
2019-06-15T07:48:48.379Z,1002.1
2019-06-15T07:49:49.763Z,1002.0
2019-06-15T07:50:51.135Z,1002.1
2019-06-15T07:51:52.519Z,1002.0
2019-06-15T07:52:53.897Z,1002.1
2019-06-15T07:53:55.279Z,1002.1
2019-06-15T07:54:56.695Z,1002.1
2019-06-15T07:55:58.084Z,1002.1
2019-06-15T07:56:59.458Z,1002.1
2019-06-15T07:58:00.838Z,1002.2
2019-06-15T07:59:02.215Z,1002.1
2019-06-15T08:00:03.589Z,1002.2
2019-06-15T08:01:04.967Z,1002.2
2019-06-15T08:02:06.348Z,1002.2
2019-06-15T08:03:07.725Z,1002.2
2019-06-15T08:04:09.103Z,1002.2
2019-06-15T08:05:10.486Z,1002.2
2019-06-15T08:06:11.856Z,1002.3
2019-06-15T08:07:13.236Z,1002.3
2019-06-15T08:08:14.613Z,1002.3
2019-06-15T08:09:16.002Z,1002.3
2019-06-15T08:10:17.459Z,1002.3
2019-06-15T08:11:18.837Z,1002.3
2019-06-15T08:12:20.219Z,1002.3
2019-06-15T08:13:21.607Z,1002.3
2019-06-15T08:14:22.975Z,1002.4
2019-06-15T08:15:24.354Z,1002.3
2019-06-15T08:16:25.733Z,1002.4
2019-06-15T08:17:27.110Z,1002.5
2019-06-15T08:18:28.492Z,1002.5
2019-06-15T08:19:29.870Z,1002.5
2019-06-15T08:20:31.263Z,1002.5
2019-06-15T08:21:32.624Z,1002.6
2019-06-15T08:22:34.003Z,1002.6
2019-06-15T08:23:35.381Z,1002.6
2019-06-15T08:24:36.762Z,1002.7
2019-06-15T08:25:38.250Z,1002.7
2019-06-15T08:26:39.644Z,1002.7
2019-06-15T08:27:41.010Z,1002.7
2019-06-15T08:28:42.389Z,1002.7
2019-06-15T08:29:43.766Z,1002.7
2019-06-15T08:30:45.246Z,1002.7
2019-06-15T08:31:46.626Z,1002.8
2019-06-15T08:32:48.012Z,1002.9
2019-06-15T08:33:49.395Z,1002.9
2019-06-15T08:34:50.785Z,1003.0
2019-06-15T08:35:52.147Z,1003.1
2019-06-15T08:36:53.529Z,1003.1
2019-06-15T08:37:54.910Z,1003.0
2019-06-15T08:38:56.286Z,1002.9
2019-06-15T08:39:57.723Z,1002.9
2019-06-15T08:40:59.098Z,1002.9
2019-06-15T08:42:00.519Z,1003.0
2019-06-15T08:43:01.882Z,1003.2
2019-06-15T08:44:03.453Z,1003.5
2019-06-15T08:45:04.803Z,1003.4
2019-06-15T08:46:06.186Z,1003.3
2019-06-15T08:47:07.576Z,1004.3
2019-06-15T08:48:08.951Z,1003.6
2019-06-15T08:49:10.327Z,1003.5
2019-06-15T08:50:11.703Z,1003.7
2019-06-15T08:51:13.082Z,1004.1
2019-06-15T08:52:14.465Z,1003.9
2019-06-15T08:53:15.860Z,1003.7
2019-06-15T08:54:17.224Z,1004.2
2019-06-15T08:55:18.610Z,1004.2
2019-06-15T08:56:19.987Z,1004.6
2019-06-15T08:57:21.364Z,1004.5
2019-06-15T08:58:22.744Z,1004.5
2019-06-15T08:59:24.126Z,1004.5
2019-06-15T09:00:25.553Z,1004.7
2019-06-15T09:01:26.911Z,1004.9
2019-06-15T09:02:28.346Z,1005.0
2019-06-15T09:03:29.796Z,1005.2
2019-06-15T09:04:31.179Z,1003.8
2019-06-15T09:05:32.558Z,1004.0
2019-06-15T09:06:33.942Z,1003.9
2019-06-15T09:07:35.328Z,1003.4
2019-06-15T09:08:36.937Z,1003.6
2019-06-15T09:09:38.304Z,1005.9
2019-06-15T09:10:39.699Z,1004.4
2019-06-15T09:11:41.080Z,1003.8
2019-06-15T09:12:42.463Z,1005.0
2019-06-15T09:13:43.849Z,1004.8
2019-06-15T09:14:45.249Z,1003.3
2019-06-15T09:15:46.625Z,1003.3
2019-06-15T09:16:48.391Z,1004.1
2019-06-15T09:17:49.657Z,1006.5
2019-06-15T09:18:51.039Z,1006.5
2019-06-15T09:19:52.428Z,1006.5
2019-06-15T09:20:53.828Z,1004.7
2019-06-15T09:21:56.049Z,1004.1
2019-06-15T09:22:57.433Z,1004.1
2019-06-15T09:23:58.823Z,1004.7
2019-06-15T09:25:00.206Z,1003.7
2019-06-15T09:26:01.595Z,1003.5
2019-06-15T09:27:02.980Z,1003.6
2019-06-15T09:28:04.368Z,1003.4
2019-06-15T09:29:11.427Z,1003.4
2019-06-15T09:30:07.158Z,1003.4
2019-06-15T09:31:08.547Z,1003.5
2019-06-15T09:32:09.947Z,1003.9
2019-06-15T09:33:11.313Z,1003.8
2019-06-15T09:34:18.800Z,1004.0
2019-06-15T09:35:14.143Z,1004.3
2019-06-15T09:36:15.530Z,1003.9
2019-06-15T09:37:16.921Z,1004.0
2019-06-15T09:38:18.309Z,1004.5
2019-06-15T09:39:19.693Z,1004.3
2019-06-15T09:40:21.073Z,1003.7
2019-06-15T09:41:22.460Z,1003.7
2019-06-15T09:42:23.843Z,1003.7
2019-06-15T09:43:25.225Z,1003.8
2019-06-15T09:44:26.611Z,1003.6
2019-06-15T09:45:28.038Z,1003.4
2019-06-15T09:46:29.418Z,1003.4
2019-06-15T09:47:30.804Z,1003.4
2019-06-15T09:48:32.184Z,1003.3
2019-06-15T09:49:33.566Z,1003.3
2019-06-15T09:50:34.944Z,1003.3
2019-06-15T09:51:36.421Z,1003.3
2019-06-15T09:52:37.811Z,1003.3
2019-06-15T09:53:39.195Z,1003.3
2019-06-15T09:54:40.572Z,1003.3
2019-06-15T09:55:41.960Z,1003.3
2019-06-15T09:56:43.329Z,1003.3
2019-06-15T09:57:44.715Z,1003.4
2019-06-15T09:58:46.094Z,1003.4
2019-06-15T09:59:47.476Z,1003.5
2019-06-15T10:00:48.864Z,1003.5
2019-06-15T10:01:50.240Z,1003.6
2019-06-15T10:02:51.622Z,1003.5
2019-06-15T10:03:53.008Z,1003.6
2019-06-15T10:04:54.379Z,1003.6
2019-06-15T10:05:55.775Z,1003.6
2019-06-15T10:06:57.157Z,1003.6
2019-06-15T10:07:58.535Z,1003.6
2019-06-15T10:08:59.967Z,1003.6
2019-06-15T10:10:01.373Z,1003.7
2019-06-15T10:11:02.697Z,1003.6
2019-06-15T10:12:04.071Z,1003.6
2019-06-15T10:13:05.457Z,1003.6
2019-06-15T10:14:06.842Z,1003.7
2019-06-15T10:15:08.217Z,1003.7
2019-06-15T10:16:09.595Z,1003.8
2019-06-15T10:17:10.973Z,1003.8
2019-06-15T10:18:12.359Z,1003.8
2019-06-15T10:19:13.731Z,1003.8
2019-06-15T10:20:15.114Z,1003.8
2019-06-15T10:21:16.495Z,1003.9
2019-06-15T10:22:17.869Z,1003.9
2019-06-15T10:23:19.261Z,1003.9
2019-06-15T10:24:20.627Z,1004.0
2019-06-15T10:25:22.010Z,1004.0
2019-06-15T10:26:23.392Z,1004.1
2019-06-15T10:27:24.795Z,1004.1
2019-06-15T10:28:26.114Z,1004.1
2019-06-15T10:29:41.232Z,1004.1
2019-06-15T10:30:28.831Z,1004.1
2019-06-15T10:31:30.209Z,1004.1
2019-06-15T10:32:31.634Z,1004.1
2019-06-15T10:33:32.932Z,1004.2
2019-06-15T10:34:34.314Z,1004.2
2019-06-15T10:35:35.691Z,1004.2
2019-06-15T10:36:37.070Z,1004.2
2019-06-15T10:37:38.449Z,1004.3
2019-06-15T10:38:39.829Z,1004.4
2019-06-15T10:39:41.217Z,1004.4
2019-06-15T10:40:42.597Z,1004.5
2019-06-15T10:41:44.062Z,1004.7
2019-06-15T10:42:45.330Z,1004.7
2019-06-15T10:43:46.709Z,1004.7
2019-06-15T10:44:48.287Z,1004.7
2019-06-15T10:45:49.707Z,1004.6
2019-06-15T10:46:51.093Z,1004.7
2019-06-15T10:47:52.472Z,1004.7
2019-06-15T10:48:55.653Z,1005.1
2019-06-15T10:49:55.200Z,1005.3
2019-06-15T10:50:56.586Z,1004.9
2019-06-15T10:51:58.018Z,1004.9
2019-06-15T10:52:59.399Z,1004.9
2019-06-15T10:54:00.781Z,1004.6
2019-06-15T10:55:02.163Z,1004.8
2019-06-15T10:56:03.547Z,1004.8
2019-06-15T10:57:04.932Z,1004.8
2019-06-15T10:58:06.318Z,1004.9
2019-06-15T10:59:07.694Z,1004.8
2019-06-15T11:00:09.078Z,1004.9
2019-06-15T11:01:10.461Z,1004.8
2019-06-15T11:02:11.847Z,1004.6
2019-06-15T11:03:13.239Z,1004.7
2019-06-15T11:04:14.654Z,1004.8
2019-06-15T11:05:16.042Z,1004.9
2019-06-15T11:06:17.425Z,1004.9
2019-06-15T11:07:18.804Z,1005.1
2019-06-15T11:08:20.196Z,1005.1
2019-06-15T11:09:21.582Z,1005.2
2019-06-15T11:10:22.968Z,1004.9
2019-06-15T11:11:24.357Z,1004.8
2019-06-15T11:12:25.734Z,1004.7
2019-06-15T11:13:27.118Z,1004.8
2019-06-15T11:14:28.521Z,1004.9
2019-06-15T11:15:29.889Z,1005.1
2019-06-15T11:16:31.299Z,1005.1
2019-06-15T11:17:32.661Z,1005.2
2019-06-15T11:18:34.065Z,1005.0
2019-06-15T11:19:35.452Z,1005.1
2019-06-15T11:20:36.887Z,1005.2
2019-06-15T11:21:38.240Z,1005.0
2019-06-15T11:22:39.637Z,1005.1
2019-06-15T11:23:41.019Z,1005.3
2019-06-15T11:24:42.411Z,1005.2
2019-06-15T11:25:43.822Z,1005.3
2019-06-15T11:26:45.160Z,1005.3
2019-06-15T11:27:46.558Z,1005.4
2019-06-15T11:28:47.952Z,1005.3
2019-06-15T11:29:49.363Z,1005.2
2019-06-15T11:30:50.776Z,1005.6
2019-06-15T11:31:52.279Z,1005.4
2019-06-15T11:32:53.626Z,1005.7
2019-06-15T11:33:55.065Z,1005.3
2019-06-15T11:34:56.524Z,1005.2
2019-06-15T11:35:57.916Z,1005.2
2019-06-15T11:36:59.368Z,1005.4
2019-06-15T11:38:00.754Z,1005.4
2019-06-15T11:39:02.142Z,1005.3
2019-06-15T11:40:03.528Z,1005.3
2019-06-15T11:41:05.549Z,1005.2
2019-06-15T11:42:06.936Z,1005.3
2019-06-15T11:43:08.315Z,1005.6
2019-06-15T11:44:09.715Z,1005.5
2019-06-15T11:45:11.117Z,1005.7
2019-06-15T11:46:12.503Z,1005.3
2019-06-15T11:47:13.889Z,1005.4
2019-06-15T11:48:15.269Z,1005.3
2019-06-15T11:49:16.654Z,1005.5
2019-06-15T11:50:18.032Z,1005.5
2019-06-15T11:51:19.417Z,1005.5
2019-06-15T11:52:20.799Z,1005.4
2019-06-15T11:53:22.181Z,1005.2
2019-06-15T11:54:23.565Z,1005.3
2019-06-15T11:55:38.543Z,1005.3
2019-06-15T11:56:26.295Z,1005.3
2019-06-15T11:57:27.674Z,1005.6
2019-06-15T11:58:29.060Z,1005.9
2019-06-15T11:59:30.444Z,1005.8
2019-06-15T12:00:31.949Z,1005.8
2019-06-15T12:01:33.200Z,1005.8
2019-06-15T12:02:34.581Z,1005.8
2019-06-15T12:03:35.963Z,1005.7
2019-06-15T12:04:37.354Z,1005.8
2019-06-15T12:05:38.743Z,1006.0
2019-06-15T12:06:40.118Z,1005.7
2019-06-15T12:07:41.511Z,1005.9
2019-06-15T12:08:42.894Z,1005.7
2019-06-15T12:09:44.285Z,1005.6
2019-06-15T12:10:45.680Z,1005.7
2019-06-15T12:11:47.066Z,1005.7
2019-06-15T12:12:48.454Z,1005.7
2019-06-15T12:13:49.842Z,1005.9
2019-06-15T12:14:51.232Z,1005.8
2019-06-15T12:15:52.621Z,1005.7
2019-06-15T12:16:54.006Z,1005.7
2019-06-15T12:17:55.392Z,1005.7
2019-06-15T12:18:56.835Z,1005.8
2019-06-15T12:19:58.193Z,1005.8
2019-06-15T12:20:59.570Z,1005.7
2019-06-15T12:22:00.953Z,1005.6
2019-06-15T12:23:02.341Z,1005.5
2019-06-15T12:24:03.724Z,1005.5
2019-06-15T12:25:05.106Z,1005.6
2019-06-15T12:26:06.490Z,1005.6
2019-06-15T12:27:07.873Z,1005.6
2019-06-15T12:28:09.256Z,1005.6
2019-06-15T12:29:10.642Z,1005.7
2019-06-15T12:30:12.029Z,1005.7
2019-06-15T12:31:13.415Z,1005.9
2019-06-15T12:32:14.801Z,1006.2
2019-06-15T12:33:16.178Z,1006.2
2019-06-15T12:34:20.415Z,1006.1
2019-06-15T12:35:18.913Z,1006.1
2019-06-15T12:36:20.301Z,1006.0
2019-06-15T12:37:21.688Z,1006.0
2019-06-15T12:38:23.072Z,1006.0
2019-06-15T12:39:24.458Z,1006.0
2019-06-15T12:40:25.845Z,1006.1
2019-06-15T12:41:27.226Z,1006.2
2019-06-15T12:42:28.643Z,1006.2
2019-06-15T12:43:30.006Z,1006.3
2019-06-15T12:44:31.393Z,1006.1
2019-06-15T12:45:32.784Z,1006.3